sensor_id;sensor_type;location;lat;lon;timestamp;P1;durP1;ratioP1;P2;durP2;ratioP2
25435;SDS011;13363;52.772;-3.890;2023-07-22T00:01:09;8.63;;;5.13;;
25435;SDS011;13363;52.772;-3.890;2023-07-22T00:03:35;7.00;;;5.47;;
25435;SDS011;13363;52.772;-3.890;2023-07-22T00:08:34;11.67;;;6.17;;
25435;SDS011;13363;52.772;-3.890;2023-07-22T00:11:01;15.70;;;6.70;;
25435;SDS011;13363;52.772;-3.890;2023-07-22T00:13:27;13.70;;;6.93;;
25435;SDS011;13363;52.772;-3.890;2023-07-22T00:15:53;12.17;;;6.77;;
25435;SDS011;13363;52.772;-3.890;2023-07-22T00:18:19;11.43;;;6.30;;
25435;SDS011;13363;52.772;-3.890;2023-07-22T00:20:45;11.33;;;6.43;;
25435;SDS011;13363;52.772;-3.890;2023-07-22T00:23:11;11.93;;;7.00;;
25435;SDS011;13363;52.772;-3.890;2023-07-22T00:25:37;10.40;;;6.40;;
25435;SDS011;13363;52.772;-3.890;2023-07-22T00:28:02;10.37;;;6.17;;
25435;SDS011;13363;52.772;-3.890;2023-07-22T00:30:31;11.43;;;6.77;;
25435;SDS011;13363;52.772;-3.890;2023-07-22T00:32:57;7.73;;;6.23;;
25435;SDS011;13363;52.772;-3.890;2023-07-22T00:35:23;17.90;;;7.07;;
25435;SDS011;13363;52.772;-3.890;2023-07-22T00:37:49;9.80;;;6.90;;
25435;SDS011;13363;52.772;-3.890;2023-07-22T00:40:15;7.60;;;6.43;;
25435;SDS011;13363;52.772;-3.890;2023-07-22T00:42:42;11.07;;;6.70;;
25435;SDS011;13363;52.772;-3.890;2023-07-22T00:45:08;9.97;;;6.53;;
25435;SDS011;13363;52.772;-3.890;2023-07-22T00:47:34;13.77;;;6.73;;
25435;SDS011;13363;52.772;-3.890;2023-07-22T00:50:05;16.20;;;7.27;;
25435;SDS011;13363;52.772;-3.890;2023-07-22T00:52:32;15.27;;;6.53;;
25435;SDS011;13363;52.772;-3.890;2023-07-22T00:55:02;9.83;;;6.80;;
25435;SDS011;13363;52.772;-3.890;2023-07-22T00:57:30;15.87;;;7.47;;
25435;SDS011;13363;52.772;-3.890;2023-07-22T00:59:56;7.80;;;7.10;;
25435;SDS011;13363;52.772;-3.890;2023-07-22T01:02:22;9.93;;;7.77;;
25435;SDS011;13363;52.772;-3.890;2023-07-22T01:04:49;10.33;;;7.77;;
25435;SDS011;13363;52.772;-3.890;2023-07-22T01:07:16;13.10;;;8.00;;
25435;SDS011;13363;52.772;-3.890;2023-07-22T01:09:43;12.30;;;9.23;;
25435;SDS011;13363;52.772;-3.890;2023-07-22T01:12:11;15.63;;;8.83;;
25435;SDS011;13363;52.772;-3.890;2023-07-22T01:14:40;11.50;;;9.03;;
25435;SDS011;13363;52.772;-3.890;2023-07-22T01:17:10;16.77;;;9.60;;
25435;SDS011;13363;52.772;-3.890;2023-07-22T01:19:36;15.83;;;10.57;;
25435;SDS011;13363;52.772;-3.890;2023-07-22T01:22:03;15.87;;;10.77;;
25435;SDS011;13363;52.772;-3.890;2023-07-22T01:24:31;15.87;;;10.47;;
25435;SDS011;13363;52.772;-3.890;2023-07-22T01:26:57;15.20;;;10.83;;
25435;SDS011;13363;52.772;-3.890;2023-07-22T01:29:23;16.00;;;11.20;;
25435;SDS011;13363;52.772;-3.890;2023-07-22T01:31:51;16.33;;;11.50;;
25435;SDS011;13363;52.772;-3.890;2023-07-22T01:34:19;18.13;;;12.03;;
25435;SDS011;13363;52.772;-3.890;2023-07-22T01:36:46;15.63;;;10.67;;
25435;SDS011;13363;52.772;-3.890;2023-07-22T01:39:12;17.83;;;11.87;;
25435;SDS011;13363;52.772;-3.890;2023-07-22T01:41:42;15.70;;;10.70;;
25435;SDS011;13363;52.772;-3.890;2023-07-22T01:44:08;12.03;;;9.13;;
25435;SDS011;13363;52.772;-3.890;2023-07-22T01:46:34;10.17;;;6.97;;
25435;SDS011;13363;52.772;-3.890;2023-07-22T01:49:01;12.33;;;7.13;;
25435;SDS011;13363;52.772;-3.890;2023-07-22T01:51:28;9.13;;;8.30;;
25435;SDS011;13363;52.772;-3.890;2023-07-22T01:53:54;10.03;;;8.07;;
25435;SDS011;13363;52.772;-3.890;2023-07-22T01:56:21;8.87;;;7.77;;
25435;SDS011;13363;52.772;-3.890;2023-07-22T01:58:48;8.60;;;7.70;;
25435;SDS011;13363;52.772;-3.890;2023-07-22T02:01:13;8.77;;;7.10;;
25435;SDS011;13363;52.772;-3.890;2023-07-22T02:03:41;7.53;;;6.83;;
25435;SDS011;13363;52.772;-3.890;2023-07-22T02:06:10;8.07;;;5.73;;
25435;SDS011;13363;52.772;-3.890;2023-07-22T02:08:36;6.50;;;5.90;;
25435;SDS011;13363;52.772;-3.890;2023-07-22T02:11:02;8.43;;;5.70;;
25435;SDS011;13363;52.772;-3.890;2023-07-22T02:13:29;8.13;;;7.43;;
25435;SDS011;13363;52.772;-3.890;2023-07-22T02:15:55;8.47;;;7.70;;
25435;SDS011;13363;52.772;-3.890;2023-07-22T02:18:21;11.80;;;8.50;;
25435;SDS011;13363;52.772;-3.890;2023-07-22T02:20:47;13.70;;;10.50;;
25435;SDS011;13363;52.772;-3.890;2023-07-22T02:23:13;16.07;;;12.63;;
25435;SDS011;13363;52.772;-3.890;2023-07-22T02:25:39;18.00;;;12.73;;
25435;SDS011;13363;52.772;-3.890;2023-07-22T02:28:05;18.83;;;13.80;;
25435;SDS011;13363;52.772;-3.890;2023-07-22T02:30:34;16.93;;;13.33;;
25435;SDS011;13363;52.772;-3.890;2023-07-22T02:33:01;19.43;;;13.90;;
25435;SDS011;13363;52.772;-3.890;2023-07-22T02:35:27;19.17;;;13.90;;
25435;SDS011;13363;52.772;-3.890;2023-07-22T02:37:53;22.17;;;15.50;;
25435;SDS011;13363;52.772;-3.890;2023-07-22T02:40:19;23.37;;;14.63;;
25435;SDS011;13363;52.772;-3.890;2023-07-22T02:42:45;27.07;;;15.50;;
25435;SDS011;13363;52.772;-3.890;2023-07-22T02:45:11;24.83;;;15.07;;
25435;SDS011;13363;52.772;-3.890;2023-07-22T02:47:37;21.47;;;15.37;;
25435;SDS011;13363;52.772;-3.890;2023-07-22T02:50:05;22.93;;;15.67;;
25435;SDS011;13363;52.772;-3.890;2023-07-22T02:52:32;20.47;;;14.57;;
25435;SDS011;13363;52.772;-3.890;2023-07-22T02:55:05;24.10;;;14.40;;
25435;SDS011;13363;52.772;-3.890;2023-07-22T02:57:39;18.67;;;12.47;;
25435;SDS011;13363;52.772;-3.890;2023-07-22T03:00:06;21.47;;;13.13;;
25435;SDS011;13363;52.772;-3.890;2023-07-22T03:02:33;17.83;;;12.50;;
25435;SDS011;13363;52.772;-3.890;2023-07-22T03:05:03;17.47;;;12.80;;
25435;SDS011;13363;52.772;-3.890;2023-07-22T03:07:33;15.40;;;11.07;;
25435;SDS011;13363;52.772;-3.890;2023-07-22T03:09:59;15.83;;;11.37;;
25435;SDS011;13363;52.772;-3.890;2023-07-22T03:12:25;11.90;;;10.40;;
25435;SDS011;13363;52.772;-3.890;2023-07-22T03:14:52;16.83;;;11.50;;
25435;SDS011;13363;52.772;-3.890;2023-07-22T03:17:18;16.57;;;11.23;;
25435;SDS011;13363;52.772;-3.890;2023-07-22T03:19:45;17.07;;;10.27;;
25435;SDS011;13363;52.772;-3.890;2023-07-22T03:22:14;12.27;;;9.50;;
25435;SDS011;13363;52.772;-3.890;2023-07-22T03:24:47;11.43;;;9.00;;
25435;SDS011;13363;52.772;-3.890;2023-07-22T03:27:13;13.97;;;9.57;;
25435;SDS011;13363;52.772;-3.890;2023-07-22T03:29:40;12.73;;;9.00;;
25435;SDS011;13363;52.772;-3.890;2023-07-22T03:32:07;10.47;;;8.43;;
25435;SDS011;13363;52.772;-3.890;2023-07-22T03:34:33;10.03;;;7.23;;
25435;SDS011;13363;52.772;-3.890;2023-07-22T03:36:59;8.70;;;7.83;;
25435;SDS011;13363;52.772;-3.890;2023-07-22T03:39:26;7.97;;;7.00;;
25435;SDS011;13363;52.772;-3.890;2023-07-22T03:41:52;9.40;;;6.87;;
25435;SDS011;13363;52.772;-3.890;2023-07-22T03:44:17;7.10;;;6.30;;
25435;SDS011;13363;52.772;-3.890;2023-07-22T03:46:43;10.10;;;6.17;;
25435;SDS011;13363;52.772;-3.890;2023-07-22T03:49:09;5.57;;;5.07;;
25435;SDS011;13363;52.772;-3.890;2023-07-22T03:51:35;5.93;;;5.43;;
25435;SDS011;13363;52.772;-3.890;2023-07-22T03:54:01;5.20;;;4.70;;
25435;SDS011;13363;52.772;-3.890;2023-07-22T03:56:26;5.63;;;4.87;;
25435;SDS011;13363;52.772;-3.890;2023-07-22T03:58:52;5.40;;;4.90;;
25435;SDS011;13363;52.772;-3.890;2023-07-22T04:01:18;5.23;;;4.27;;
25435;SDS011;13363;52.772;-3.890;2023-07-22T04:03:44;5.30;;;4.80;;
25435;SDS011;13363;52.772;-3.890;2023-07-22T04:06:10;6.73;;;4.63;;
25435;SDS011;13363;52.772;-3.890;2023-07-22T04:08:36;4.67;;;4.37;;
25435;SDS011;13363;52.772;-3.890;2023-07-22T04:11:02;6.53;;;5.03;;
25435;SDS011;13363;52.772;-3.890;2023-07-22T04:13:29;6.07;;;5.23;;
25435;SDS011;13363;52.772;-3.890;2023-07-22T04:15:55;6.17;;;4.60;;
25435;SDS011;13363;52.772;-3.890;2023-07-22T04:18:21;4.33;;;3.93;;
25435;SDS011;13363;52.772;-3.890;2023-07-22T04:20:47;4.63;;;4.23;;
25435;SDS011;13363;52.772;-3.890;2023-07-22T04:23:15;3.83;;;3.07;;
25435;SDS011;13363;52.772;-3.890;2023-07-22T04:25:44;5.70;;;4.00;;
25435;SDS011;13363;52.772;-3.890;2023-07-22T04:28:10;4.43;;;4.03;;
25435;SDS011;13363;52.772;-3.890;2023-07-22T04:30:36;5.43;;;3.83;;
25435;SDS011;13363;52.772;-3.890;2023-07-22T04:33:05;7.30;;;5.00;;
25435;SDS011;13363;52.772;-3.890;2023-07-22T04:35:34;5.37;;;4.63;;
25435;SDS011;13363;52.772;-3.890;2023-07-22T04:38:02;5.23;;;4.73;;
25435;SDS011;13363;52.772;-3.890;2023-07-22T04:40:28;4.80;;;3.57;;
25435;SDS011;13363;52.772;-3.890;2023-07-22T04:42:55;7.30;;;5.60;;
25435;SDS011;13363;52.772;-3.890;2023-07-22T04:45:22;6.17;;;5.10;;
25435;SDS011;13363;52.772;-3.890;2023-07-22T04:47:51;7.93;;;6.37;;
25435;SDS011;13363;52.772;-3.890;2023-07-22T04:50:17;10.17;;;6.00;;
25435;SDS011;13363;52.772;-3.890;2023-07-22T04:52:47;7.70;;;6.13;;
25435;SDS011;13363;52.772;-3.890;2023-07-22T04:55:13;8.07;;;5.83;;
25435;SDS011;13363;52.772;-3.890;2023-07-22T04:57:40;12.33;;;7.00;;
25435;SDS011;13363;52.772;-3.890;2023-07-22T05:00:07;7.07;;;6.37;;
25435;SDS011;13363;52.772;-3.890;2023-07-22T05:02:45;7.10;;;4.67;;
25435;SDS011;13363;52.772;-3.890;2023-07-22T05:05:15;5.13;;;4.73;;
25435;SDS011;13363;52.772;-3.890;2023-07-22T05:07:41;7.10;;;5.03;;
25435;SDS011;13363;52.772;-3.890;2023-07-22T05:10:08;8.33;;;5.67;;
25435;SDS011;13363;52.772;-3.890;2023-07-22T05:12:40;6.90;;;5.33;;
25435;SDS011;13363;52.772;-3.890;2023-07-22T05:15:07;7.30;;;5.93;;
25435;SDS011;13363;52.772;-3.890;2023-07-22T05:17:34;5.83;;;5.33;;
25435;SDS011;13363;52.772;-3.890;2023-07-22T05:19:59;12.90;;;6.37;;
25435;SDS011;13363;52.772;-3.890;2023-07-22T05:22:25;7.13;;;5.60;;
25435;SDS011;13363;52.772;-3.890;2023-07-22T05:24:52;9.93;;;6.33;;
25435;SDS011;13363;52.772;-3.890;2023-07-22T05:27:17;7.77;;;6.47;;
25435;SDS011;13363;52.772;-3.890;2023-07-22T05:29:43;9.40;;;6.37;;
25435;SDS011;13363;52.772;-3.890;2023-07-22T05:32:10;7.93;;;6.10;;
25435;SDS011;13363;52.772;-3.890;2023-07-22T05:34:36;6.53;;;5.97;;
25435;SDS011;13363;52.772;-3.890;2023-07-22T05:37:02;8.30;;;5.40;;
25435;SDS011;13363;52.772;-3.890;2023-07-22T05:39:28;7.30;;;5.07;;
25435;SDS011;13363;52.772;-3.890;2023-07-22T05:41:53;8.37;;;5.03;;
25435;SDS011;13363;52.772;-3.890;2023-07-22T05:44:20;4.57;;;3.77;;
25435;SDS011;13363;52.772;-3.890;2023-07-22T05:46:46;6.07;;;5.10;;
25435;SDS011;13363;52.772;-3.890;2023-07-22T05:49:12;5.67;;;5.17;;
25435;SDS011;13363;52.772;-3.890;2023-07-22T05:51:37;8.10;;;4.90;;
25435;SDS011;13363;52.772;-3.890;2023-07-22T05:54:04;6.30;;;4.20;;
25435;SDS011;13363;52.772;-3.890;2023-07-22T05:56:31;5.23;;;4.57;;
25435;SDS011;13363;52.772;-3.890;2023-07-22T05:58:57;4.70;;;4.20;;
25435;SDS011;13363;52.772;-3.890;2023-07-22T06:01:23;3.83;;;3.23;;
25435;SDS011;13363;52.772;-3.890;2023-07-22T06:03:52;3.63;;;3.33;;
25435;SDS011;13363;52.772;-3.890;2023-07-22T06:06:18;3.70;;;2.80;;
25435;SDS011;13363;52.772;-3.890;2023-07-22T06:08:44;3.27;;;2.60;;
25435;SDS011;13363;52.772;-3.890;2023-07-22T06:11:09;2.50;;;2.30;;
25435;SDS011;13363;52.772;-3.890;2023-07-22T06:13:36;2.37;;;2.27;;
25435;SDS011;13363;52.772;-3.890;2023-07-22T06:16:02;2.40;;;2.20;;
25435;SDS011;13363;52.772;-3.890;2023-07-22T06:18:28;2.67;;;2.47;;
25435;SDS011;13363;52.772;-3.890;2023-07-22T06:20:54;2.70;;;2.50;;
25435;SDS011;13363;52.772;-3.890;2023-07-22T06:23:20;2.73;;;2.53;;
25435;SDS011;13363;52.772;-3.890;2023-07-22T06:25:46;3.57;;;2.70;;
25435;SDS011;13363;52.772;-3.890;2023-07-22T06:28:12;4.20;;;2.30;;
25435;SDS011;13363;52.772;-3.890;2023-07-22T06:30:37;3.13;;;2.93;;
25435;SDS011;13363;52.772;-3.890;2023-07-22T06:33:03;3.73;;;2.87;;
25435;SDS011;13363;52.772;-3.890;2023-07-22T06:35:29;2.80;;;2.60;;
25435;SDS011;13363;52.772;-3.890;2023-07-22T06:37:55;2.80;;;2.60;;
25435;SDS011;13363;52.772;-3.890;2023-07-22T06:40:21;3.53;;;2.20;;
25435;SDS011;13363;52.772;-3.890;2023-07-22T06:42:47;2.50;;;2.30;;
25435;SDS011;13363;52.772;-3.890;2023-07-22T06:45:13;2.43;;;2.27;;
25435;SDS011;13363;52.772;-3.890;2023-07-22T06:47:39;2.03;;;1.93;;
25435;SDS011;13363;52.772;-3.890;2023-07-22T06:50:05;2.43;;;2.30;;
25435;SDS011;13363;52.772;-3.890;2023-07-22T06:52:32;1.80;;;1.70;;
25435;SDS011;13363;52.772;-3.890;2023-07-22T06:54:58;2.33;;;2.17;;
25435;SDS011;13363;52.772;-3.890;2023-07-22T06:57:24;2.20;;;2.00;;
25435;SDS011;13363;52.772;-3.890;2023-07-22T06:59:51;2.67;;;2.17;;
25435;SDS011;13363;52.772;-3.890;2023-07-22T07:02:17;3.37;;;1.53;;
25435;SDS011;13363;52.772;-3.890;2023-07-22T07:04:43;2.00;;;1.90;;
25435;SDS011;13363;52.772;-3.890;2023-07-22T07:07:09;1.63;;;1.53;;
25435;SDS011;13363;52.772;-3.890;2023-07-22T07:09:35;1.60;;;1.50;;
25435;SDS011;13363;52.772;-3.890;2023-07-22T07:12:01;1.63;;;1.53;;
25435;SDS011;13363;52.772;-3.890;2023-07-22T07:14:26;2.20;;;1.83;;
25435;SDS011;13363;52.772;-3.890;2023-07-22T07:16:53;1.80;;;1.43;;
25435;SDS011;13363;52.772;-3.890;2023-07-22T07:19:19;1.53;;;1.40;;
25435;SDS011;13363;52.772;-3.890;2023-07-22T07:21:45;1.60;;;1.50;;
25435;SDS011;13363;52.772;-3.890;2023-07-22T07:24:11;1.60;;;1.50;;
25435;SDS011;13363;52.772;-3.890;2023-07-22T07:26:36;2.13;;;1.83;;
25435;SDS011;13363;52.772;-3.890;2023-07-22T07:29:02;2.50;;;2.30;;
25435;SDS011;13363;52.772;-3.890;2023-07-22T07:31:28;1.97;;;1.87;;
25435;SDS011;13363;52.772;-3.890;2023-07-22T07:33:54;2.50;;;1.60;;
25435;SDS011;13363;52.772;-3.890;2023-07-22T07:36:20;2.93;;;2.60;;
25435;SDS011;13363;52.772;-3.890;2023-07-22T07:38:46;2.47;;;1.97;;
25435;SDS011;13363;52.772;-3.890;2023-07-22T07:41:12;4.43;;;1.90;;
25435;SDS011;13363;52.772;-3.890;2023-07-22T07:43:39;2.43;;;1.83;;
25435;SDS011;13363;52.772;-3.890;2023-07-22T07:48:38;2.20;;;1.70;;
25435;SDS011;13363;52.772;-3.890;2023-07-22T07:51:04;2.37;;;2.03;;
25435;SDS011;13363;52.772;-3.890;2023-07-22T07:53:30;2.30;;;2.20;;
25435;SDS011;13363;52.772;-3.890;2023-07-22T07:55:55;2.40;;;2.30;;
25435;SDS011;13363;52.772;-3.890;2023-07-22T07:58:21;2.07;;;1.90;;
25435;SDS011;13363;52.772;-3.890;2023-07-22T08:00:47;1.67;;;1.57;;
25435;SDS011;13363;52.772;-3.890;2023-07-22T08:03:13;1.80;;;1.70;;
25435;SDS011;13363;52.772;-3.890;2023-07-22T08:05:39;1.90;;;1.80;;
25435;SDS011;13363;52.772;-3.890;2023-07-22T08:08:05;1.53;;;1.43;;
25435;SDS011;13363;52.772;-3.890;2023-07-22T08:10:31;1.77;;;1.67;;
25435;SDS011;13363;52.772;-3.890;2023-07-22T08:12:57;2.17;;;1.50;;
25435;SDS011;13363;52.772;-3.890;2023-07-22T08:15:23;1.57;;;1.47;;
25435;SDS011;13363;52.772;-3.890;2023-07-22T08:17:49;1.10;;;1.10;;
25435;SDS011;13363;52.772;-3.890;2023-07-22T08:20:15;1.50;;;1.40;;
25435;SDS011;13363;52.772;-3.890;2023-07-22T08:22:41;1.07;;;1.07;;
25435;SDS011;13363;52.772;-3.890;2023-07-22T08:25:06;1.23;;;1.13;;
25435;SDS011;13363;52.772;-3.890;2023-07-22T08:27:32;1.10;;;1.10;;
25435;SDS011;13363;52.772;-3.890;2023-07-22T08:29:58;1.10;;;1.10;;
25435;SDS011;13363;52.772;-3.890;2023-07-22T08:32:24;1.63;;;1.10;;
25435;SDS011;13363;52.772;-3.890;2023-07-22T08:34:50;1.40;;;1.30;;
25435;SDS011;13363;52.772;-3.890;2023-07-22T08:37:17;0.83;;;0.83;;
25435;SDS011;13363;52.772;-3.890;2023-07-22T08:39:43;1.37;;;1.37;;
25435;SDS011;13363;52.772;-3.890;2023-07-22T08:42:09;1.00;;;1.00;;
25435;SDS011;13363;52.772;-3.890;2023-07-22T08:44:37;1.07;;;1.00;;
25435;SDS011;13363;52.772;-3.890;2023-07-22T08:47:06;2.50;;;1.20;;
25435;SDS011;13363;52.772;-3.890;2023-07-22T08:49:35;1.37;;;1.03;;
25435;SDS011;13363;52.772;-3.890;2023-07-22T08:52:02;0.70;;;0.70;;
25435;SDS011;13363;52.772;-3.890;2023-07-22T08:54:28;2.00;;;0.80;;
25435;SDS011;13363;52.772;-3.890;2023-07-22T08:56:54;1.03;;;1.00;;
25435;SDS011;13363;52.772;-3.890;2023-07-22T08:59:20;0.60;;;0.60;;
25435;SDS011;13363;52.772;-3.890;2023-07-22T09:01:47;0.83;;;0.73;;
25435;SDS011;13363;52.772;-3.890;2023-07-22T09:04:14;0.63;;;0.63;;
25435;SDS011;13363;52.772;-3.890;2023-07-22T09:06:40;1.27;;;0.67;;
25435;SDS011;13363;52.772;-3.890;2023-07-22T09:09:07;0.70;;;0.70;;
25435;SDS011;13363;52.772;-3.890;2023-07-22T09:11:35;1.23;;;0.60;;
25435;SDS011;13363;52.772;-3.890;2023-07-22T09:14:02;1.07;;;0.50;;
25435;SDS011;13363;52.772;-3.890;2023-07-22T09:16:29;0.90;;;0.40;;
25435;SDS011;13363;52.772;-3.890;2023-07-22T09:18:59;1.60;;;0.50;;
25435;SDS011;13363;52.772;-3.890;2023-07-22T09:21:25;1.60;;;0.80;;
25435;SDS011;13363;52.772;-3.890;2023-07-22T09:23:53;0.50;;;0.50;;
25435;SDS011;13363;52.772;-3.890;2023-07-22T09:26:18;0.97;;;0.50;;
25435;SDS011;13363;52.772;-3.890;2023-07-22T09:28:52;0.20;;;0.20;;
25435;SDS011;13363;52.772;-3.890;2023-07-22T09:31:25;0.57;;;0.30;;
25435;SDS011;13363;52.772;-3.890;2023-07-22T09:33:53;0.40;;;0.40;;
25435;SDS011;13363;52.772;-3.890;2023-07-22T09:36:19;0.40;;;0.40;;
25435;SDS011;13363;52.772;-3.890;2023-07-22T09:38:58;0.40;;;0.40;;
25435;SDS011;13363;52.772;-3.890;2023-07-22T09:41:29;0.50;;;0.50;;
25435;SDS011;13363;52.772;-3.890;2023-07-22T09:44:01;0.40;;;0.40;;
25435;SDS011;13363;52.772;-3.890;2023-07-22T09:46:31;0.50;;;0.50;;
25435;SDS011;13363;52.772;-3.890;2023-07-22T09:49:03;1.03;;;0.33;;
25435;SDS011;13363;52.772;-3.890;2023-07-22T09:51:34;0.40;;;0.40;;
25435;SDS011;13363;52.772;-3.890;2023-07-22T09:54:01;0.40;;;0.40;;
25435;SDS011;13363;52.772;-3.890;2023-07-22T09:56:28;0.50;;;0.37;;
25435;SDS011;13363;52.772;-3.890;2023-07-22T09:58:54;0.73;;;0.30;;
25435;SDS011;13363;52.772;-3.890;2023-07-22T10:01:23;0.40;;;0.40;;
25435;SDS011;13363;52.772;-3.890;2023-07-22T10:03:52;0.30;;;0.30;;
25435;SDS011;13363;52.772;-3.890;2023-07-22T10:06:28;0.20;;;0.20;;
25435;SDS011;13363;52.772;-3.890;2023-07-22T10:08:56;0.37;;;0.27;;
25435;SDS011;13363;52.772;-3.890;2023-07-22T10:11:26;1.20;;;0.40;;
25435;SDS011;13363;52.772;-3.890;2023-07-22T10:13:53;0.30;;;0.30;;
25435;SDS011;13363;52.772;-3.890;2023-07-22T10:16:21;0.20;;;0.20;;
25435;SDS011;13363;52.772;-3.890;2023-07-22T10:18:48;0.30;;;0.30;;
25435;SDS011;13363;52.772;-3.890;2023-07-22T10:21:14;0.33;;;0.30;;
25435;SDS011;13363;52.772;-3.890;2023-07-22T10:23:40;0.23;;;0.23;;
25435;SDS011;13363;52.772;-3.890;2023-07-22T10:26:07;0.30;;;0.30;;
25435;SDS011;13363;52.772;-3.890;2023-07-22T10:28:35;2.00;;;0.27;;
25435;SDS011;13363;52.772;-3.890;2023-07-22T10:31:03;0.40;;;0.30;;
25435;SDS011;13363;52.772;-3.890;2023-07-22T10:33:36;0.30;;;0.30;;
25435;SDS011;13363;52.772;-3.890;2023-07-22T10:36:05;0.30;;;0.30;;
25435;SDS011;13363;52.772;-3.890;2023-07-22T10:38:32;0.20;;;0.20;;
25435;SDS011;13363;52.772;-3.890;2023-07-22T10:40:59;0.83;;;0.40;;
25435;SDS011;13363;52.772;-3.890;2023-07-22T10:43:26;0.30;;;0.30;;
25435;SDS011;13363;52.772;-3.890;2023-07-22T10:45:56;0.63;;;0.50;;
25435;SDS011;13363;52.772;-3.890;2023-07-22T10:48:27;0.43;;;0.43;;
25435;SDS011;13363;52.772;-3.890;2023-07-22T10:51:04;0.40;;;0.40;;
25435;SDS011;13363;52.772;-3.890;2023-07-22T10:53:48;0.20;;;0.20;;
25435;SDS011;13363;52.772;-3.890;2023-07-22T10:56:18;0.23;;;0.23;;
25435;SDS011;13363;52.772;-3.890;2023-07-22T11:04:08;0.20;;;0.10;;
25435;SDS011;13363;52.772;-3.890;2023-07-22T11:11:55;0.10;;;0.10;;
25435;SDS011;13363;52.772;-3.890;2023-07-22T11:14:29;0.20;;;0.20;;
25435;SDS011;13363;52.772;-3.890;2023-07-22T11:16:57;0.77;;;0.10;;
25435;SDS011;13363;52.772;-3.890;2023-07-22T11:19:24;0.20;;;0.20;;
25435;SDS011;13363;52.772;-3.890;2023-07-22T11:21:51;0.20;;;0.20;;
25435;SDS011;13363;52.772;-3.890;2023-07-22T11:24:18;0.10;;;0.10;;
25435;SDS011;13363;52.772;-3.890;2023-07-22T11:26:45;3.20;;;0.63;;
25435;SDS011;13363;52.772;-3.890;2023-07-22T11:29:11;0.47;;;0.30;;
25435;SDS011;13363;52.772;-3.890;2023-07-22T11:31:38;0.13;;;0.13;;
25435;SDS011;13363;52.772;-3.890;2023-07-22T11:34:14;2.13;;;0.57;;
25435;SDS011;13363;52.772;-3.890;2023-07-22T11:36:42;0.30;;;0.30;;
25435;SDS011;13363;52.772;-3.890;2023-07-22T11:39:09;0.10;;;0.10;;
25435;SDS011;13363;52.772;-3.890;2023-07-22T11:41:37;0.57;;;0.20;;
25435;SDS011;13363;52.772;-3.890;2023-07-22T11:44:04;0.40;;;0.30;;
25435;SDS011;13363;52.772;-3.890;2023-07-22T11:46:34;0.20;;;0.20;;
25435;SDS011;13363;52.772;-3.890;2023-07-22T11:49:01;0.30;;;0.30;;
25435;SDS011;13363;52.772;-3.890;2023-07-22T11:51:27;0.37;;;0.37;;
25435;SDS011;13363;52.772;-3.890;2023-07-22T11:53:54;1.00;;;0.40;;
25435;SDS011;13363;52.772;-3.890;2023-07-22T11:56:21;0.50;;;0.50;;
25435;SDS011;13363;52.772;-3.890;2023-07-22T11:58:49;0.53;;;0.40;;
25435;SDS011;13363;52.772;-3.890;2023-07-22T12:01:18;1.60;;;0.60;;
25435;SDS011;13363;52.772;-3.890;2023-07-22T12:03:45;1.73;;;0.40;;
25435;SDS011;13363;52.772;-3.890;2023-07-22T12:06:12;0.30;;;0.30;;
25435;SDS011;13363;52.772;-3.890;2023-07-22T12:08:46;1.73;;;0.57;;
25435;SDS011;13363;52.772;-3.890;2023-07-22T12:11:19;0.83;;;0.80;;
25435;SDS011;13363;52.772;-3.890;2023-07-22T12:14:08;1.63;;;1.13;;
25435;SDS011;13363;52.772;-3.890;2023-07-22T12:16:36;2.43;;;1.10;;
25435;SDS011;13363;52.772;-3.890;2023-07-22T12:19:03;1.00;;;1.00;;
25435;SDS011;13363;52.772;-3.890;2023-07-22T12:21:30;1.37;;;1.20;;
25435;SDS011;13363;52.772;-3.890;2023-07-22T12:23:56;1.97;;;1.33;;
25435;SDS011;13363;52.772;-3.890;2023-07-22T12:26:22;2.27;;;1.63;;
25435;SDS011;13363;52.772;-3.890;2023-07-22T12:28:49;2.00;;;1.63;;
25435;SDS011;13363;52.772;-3.890;2023-07-22T12:31:14;1.87;;;1.60;;
25435;SDS011;13363;52.772;-3.890;2023-07-22T12:33:41;3.07;;;1.70;;
25435;SDS011;13363;52.772;-3.890;2023-07-22T12:36:07;3.10;;;1.87;;
25435;SDS011;13363;52.772;-3.890;2023-07-22T12:38:35;2.40;;;2.20;;
25435;SDS011;13363;52.772;-3.890;2023-07-22T12:41:05;1.90;;;1.80;;
25435;SDS011;13363;52.772;-3.890;2023-07-22T12:43:31;1.50;;;1.40;;
25435;SDS011;13363;52.772;-3.890;2023-07-22T12:45:56;1.40;;;1.33;;
25435;SDS011;13363;52.772;-3.890;2023-07-22T12:48:22;1.43;;;1.30;;
25435;SDS011;13363;52.772;-3.890;2023-07-22T12:50:49;2.03;;;1.10;;
25435;SDS011;13363;52.772;-3.890;2023-07-22T12:53:16;1.93;;;1.10;;
25435;SDS011;13363;52.772;-3.890;2023-07-22T12:55:42;1.20;;;1.10;;
25435;SDS011;13363;52.772;-3.890;2023-07-22T12:58:07;1.33;;;1.07;;
25435;SDS011;13363;52.772;-3.890;2023-07-22T13:00:33;2.20;;;1.33;;
25435;SDS011;13363;52.772;-3.890;2023-07-22T13:02:59;1.80;;;0.93;;
25435;SDS011;13363;52.772;-3.890;2023-07-22T13:05:25;1.70;;;1.40;;
25435;SDS011;13363;52.772;-3.890;2023-07-22T13:07:51;2.53;;;1.70;;
25435;SDS011;13363;52.772;-3.890;2023-07-22T13:10:18;1.90;;;1.80;;
25435;SDS011;13363;52.772;-3.890;2023-07-22T13:12:45;2.80;;;2.10;;
25435;SDS011;13363;52.772;-3.890;2023-07-22T13:15:11;3.40;;;2.23;;
25435;SDS011;13363;52.772;-3.890;2023-07-22T13:17:37;2.73;;;1.83;;
25435;SDS011;13363;52.772;-3.890;2023-07-22T13:20:06;2.93;;;2.37;;
25435;SDS011;13363;52.772;-3.890;2023-07-22T13:22:33;2.87;;;2.27;;
25435;SDS011;13363;52.772;-3.890;2023-07-22T13:25:00;6.97;;;2.83;;
25435;SDS011;13363;52.772;-3.890;2023-07-22T13:27:25;4.90;;;3.30;;
25435;SDS011;13363;52.772;-3.890;2023-07-22T13:33:13;3.57;;;3.00;;
25435;SDS011;13363;52.772;-3.890;2023-07-22T13:35:39;7.07;;;2.80;;
25435;SDS011;13363;52.772;-3.890;2023-07-22T13:38:05;2.30;;;1.77;;
25435;SDS011;13363;52.772;-3.890;2023-07-22T13:40:30;4.73;;;2.77;;
25435;SDS011;13363;52.772;-3.890;2023-07-22T13:42:57;4.20;;;2.63;;
25435;SDS011;13363;52.772;-3.890;2023-07-22T13:45:22;3.80;;;2.30;;
25435;SDS011;13363;52.772;-3.890;2023-07-22T13:47:48;5.03;;;2.80;;
25435;SDS011;13363;52.772;-3.890;2023-07-22T13:50:14;5.97;;;3.33;;
25435;SDS011;13363;52.772;-3.890;2023-07-22T13:52:40;9.33;;;2.97;;
25435;SDS011;13363;52.772;-3.890;2023-07-22T13:55:06;7.40;;;2.90;;
25435;SDS011;13363;52.772;-3.890;2023-07-22T13:57:33;5.10;;;2.67;;
25435;SDS011;13363;52.772;-3.890;2023-07-22T13:59:58;4.07;;;2.20;;
25435;SDS011;13363;52.772;-3.890;2023-07-22T14:02:24;5.53;;;2.43;;
25435;SDS011;13363;52.772;-3.890;2023-07-22T14:04:50;5.90;;;2.87;;
25435;SDS011;13363;52.772;-3.890;2023-07-22T14:07:16;4.90;;;2.67;;
25435;SDS011;13363;52.772;-3.890;2023-07-22T14:09:42;4.00;;;2.30;;
25435;SDS011;13363;52.772;-3.890;2023-07-22T14:12:08;8.80;;;3.20;;
25435;SDS011;13363;52.772;-3.890;2023-07-22T14:14:34;4.33;;;2.53;;
25435;SDS011;13363;52.772;-3.890;2023-07-22T14:17:00;3.37;;;2.37;;
25435;SDS011;13363;52.772;-3.890;2023-07-22T14:19:26;5.43;;;2.57;;
25435;SDS011;13363;52.772;-3.890;2023-07-22T14:21:53;3.63;;;2.47;;
25435;SDS011;13363;52.772;-3.890;2023-07-22T14:24:18;2.40;;;2.17;;
25435;SDS011;13363;52.772;-3.890;2023-07-22T14:26:44;2.50;;;2.30;;
25435;SDS011;13363;52.772;-3.890;2023-07-22T14:29:10;4.97;;;2.30;;
25435;SDS011;13363;52.772;-3.890;2023-07-22T14:31:36;2.63;;;2.27;;
25435;SDS011;13363;52.772;-3.890;2023-07-22T14:34:03;5.27;;;2.40;;
25435;SDS011;13363;52.772;-3.890;2023-07-22T14:36:28;5.43;;;2.73;;
25435;SDS011;13363;52.772;-3.890;2023-07-22T14:38:54;2.13;;;1.90;;
25435;SDS011;13363;52.772;-3.890;2023-07-22T14:41:23;4.03;;;2.30;;
25435;SDS011;13363;52.772;-3.890;2023-07-22T14:43:49;4.63;;;2.97;;
25435;SDS011;13363;52.772;-3.890;2023-07-22T14:46:14;3.87;;;2.63;;
25435;SDS011;13363;52.772;-3.890;2023-07-22T14:48:40;3.13;;;2.30;;